Авиационная погода в Липецке

Регион: 
Погода METAR: 
UUOL 171530Z 05004MPS CAVOK 11/03 Q1017 R15/090060 NOSIG
Время наблюдения
2021-09-17T15:30:00Z
Температура C
11.0
Точка росы
3.0
Направление ветра
50
Скорость ветра (узлы)
8
Метео видимость
6.21
Явления погоды
Условия полета
VFR
Аэропорт подробнее: